Time;durP1;ratioP1;P1;durP2;ratioP2;P2;SDS_P1;SDS_P2;PMS_P1;PMS_P2;Temp;Humidity;BMP_temperature;BMP_pressure;BME280_temperature;BME280_humidity;BME280_pressure;Samples;Min_cycle;Max_cycle;Signal;HPM_P1;HPM_P2
2022/01/10 00:02:12;;;;;;;;;;;;;;;8.21;80.81;98423.56;5013470;28;19916;-86
2022/01/10 00:04:37;;;;;;;;;;;;;;;8.34;80.42;98427.59;5030033;28;19917;-86
2022/01/10 00:07:03;;;;;;;;;;;;;;;8.35;80.35;98425.81;5024866;28;19917;-87
2022/01/10 00:09:28;;;;;;;;;;;;;;;8.20;80.45;98429.69;5028056;28;20307;-86
2022/01/10 00:11:53;;;;;;;;;;;;;;;8.24;80.43;98432.22;5022539;28;19913;-86
2022/01/10 00:14:19;;;;;;;;;;;;;;;8.05;81.59;98426.56;5009714;28;19913;-86
2022/01/10 00:16:44;;;;;;;;;;;;;;;8.00;81.35;98423.19;5042107;28;19917;-86
2022/01/10 00:19:09;;;;;;;;;;;;;;;7.79;81.86;98421.09;5028764;28;19924;-86
2022/01/10 00:21:35;;;;;;;;;;;;;;;7.54;83.83;98424.31;5020597;28;19921;-86
2022/01/10 00:24:00;;;;;;;;;;;;;;;7.53;84.40;98428.66;5009357;28;19913;-87
2022/01/10 00:26:26;;;;;;;;;;;;;;;7.81;83.61;98428.03;5009618;28;19913;-86
2022/01/10 00:28:51;;;;;;;;;;;;;;;7.98;82.68;98424.97;5008683;28;19914;-86
2022/01/10 00:31:16;;;;;;;;;;;;;;;8.04;82.85;98430.09;5016459;28;20319;-87
2022/01/10 00:33:42;;;;;;;;;;;;;;;8.18;82.12;98440.25;5028071;28;19917;-86
2022/01/10 00:36:08;;;;;;;;;;;;;;;8.12;81.83;98429.91;5018107;28;19921;-87
2022/01/10 00:38:33;;;;;;;;;;;;;;;8.13;81.72;98431.63;5009266;28;19990;-87
2022/01/10 00:41:00;;;;;;;;;;;;;;;8.17;81.27;98432.41;5041140;28;19913;-87
2022/01/10 00:43:39;;;;;;;;;;;;;;;8.17;81.19;98424.53;5008124;28;20434;-87
2022/01/10 00:46:05;;;;;;;;;;;;;;;8.17;81.68;98421.91;5008646;28;20016;-86
2022/01/10 00:48:30;;;;;;;;;;;;;;;8.23;81.27;98416.47;5009247;28;19984;-87
2022/01/10 00:50:56;;;;;;;;;;;;;;;8.30;80.96;98411.94;5010262;28;19921;-87
2022/01/10 00:53:21;;;;;;;;;;;;;;;8.18;81.43;98413.97;5009129;28;20008;-86
2022/01/10 00:55:47;;;;;;;;;;;;;;;8.15;80.81;98411.44;5009018;28;20041;-85
2022/01/10 00:58:12;;;;;;;;;;;;;;;8.14;81.09;98407.09;5008914;28;20000;-85
2022/01/10 01:00:38;;;;;;;;;;;;;;;8.19;81.15;98406.97;5008831;28;19964;-86
2022/01/10 01:03:03;;;;;;;;;;;;;;;8.27;81.02;98391.88;5008969;28;20411;-86
2022/01/10 01:05:30;;;;;;;;;;;;;;;8.21;81.34;98395.50;5026967;28;20353;-86
2022/01/10 01:08:00;;;;;;;;;;;;;;;8.16;80.79;98391.28;5011152;28;19925;-85
2022/01/10 01:13:09;;;;;;;;;;;;;;;8.20;81.03;98393.81;5014081;28;19917;-86
2022/01/10 01:15:45;;;;;;;;;;;;;;;8.21;81.04;98387.63;5028196;28;19913;-85
2022/01/10 01:25:54;;;;;;;;;;;;;;;8.24;80.45;98370.94;5016006;28;20295;-85
2022/01/10 01:28:19;;;;;;;;;;;;;;;8.24;81.15;98368.31;5008440;28;19917;-86
2022/01/10 01:30:44;;;;;;;;;;;;;;;8.19;80.76;98371.06;5006700;28;20456;-87
2022/01/10 01:33:12;;;;;;;;;;;;;;;8.01;82.08;98369.75;5008385;28;19921;-85
2022/01/10 01:35:38;;;;;;;;;;;;;;;8.13;82.01;98363.34;5007739;28;19917;-84
2022/01/10 01:38:03;;;;;;;;;;;;;;;8.02;82.05;98368.00;5021742;28;19925;-84
2022/01/10 01:40:31;;;;;;;;;;;;;;;8.01;81.97;98347.91;5006841;28;20024;-84
2022/01/10 01:42:56;;;;;;;;;;;;;;;7.89;81.97;98360.44;5008786;28;19917;-83
2022/01/10 01:45:34;;;;;;;;;;;;;;;7.63;84.33;98358.47;5007724;28;19921;-84
2022/01/10 01:48:00;;;;;;;;;;;;;;;7.69;84.46;98358.31;5023177;28;19975;-84
2022/01/10 01:50:25;;;;;;;;;;;;;;;7.53;84.78;98363.06;5023775;28;19921;-84
2022/01/10 01:52:50;;;;;;;;;;;;;;;7.47;84.97;98354.47;5008158;28;19914;-87
2022/01/10 01:55:16;;;;;;;;;;;;;;;7.57;85.50;98347.25;5008087;28;20393;-86
2022/01/10 01:57:42;;;;;;;;;;;;;;;7.58;85.44;98341.97;5008108;28;20350;-87
2022/01/10 02:00:07;;;;;;;;;;;;;;;7.50;85.31;98343.91;5007039;28;20408;-86
2022/01/10 02:02:33;;;;;;;;;;;;;;;7.57;84.85;98348.13;5027542;28;19960;-86
2022/01/10 02:04:58;;;;;;;;;;;;;;;7.38;85.94;98339.81;5020025;28;20287;-87
2022/01/10 02:07:23;;;;;;;;;;;;;;;7.50;85.50;98338.66;5007806;28;19929;-87
2022/01/10 02:09:49;;;;;;;;;;;;;;;7.42;86.08;98345.88;5007593;28;20427;-87
2022/01/10 02:12:14;;;;;;;;;;;;;;;7.34;86.20;98344.28;5006808;28;19909;-86
2022/01/10 02:14:41;;;;;;;;;;;;;;;7.38;86.61;98342.44;5008903;28;19917;-86
2022/01/10 02:17:07;;;;;;;;;;;;;;;7.20;87.59;98346.38;5025746;28;20355;-86
2022/01/10 02:19:32;;;;;;;;;;;;;;;7.39;86.87;98352.03;5017761;28;19963;-87
2022/01/10 02:21:58;;;;;;;;;;;;;;;7.41;86.18;98354.63;5005936;28;20222;-85
2022/01/10 02:24:23;;;;;;;;;;;;;;;7.31;87.42;98349.59;5007479;28;19913;-85
2022/01/10 02:26:49;;;;;;;;;;;;;;;7.06;88.18;98343.16;5007109;28;19910;-85
2022/01/10 02:29:15;;;;;;;;;;;;;;;7.25;88.51;98348.88;5013399;28;19974;-84
2022/01/10 02:31:41;;;;;;;;;;;;;;;7.05;88.78;98339.69;5016052;28;19917;-85
2022/01/10 02:34:07;;;;;;;;;;;;;;;7.06;89.70;98332.69;5007057;28;20785;-86
2022/01/10 02:36:32;;;;;;;;;;;;;;;6.99;88.97;98317.09;5006299;28;20024;-85
2022/01/10 02:39:03;;;;;;;;;;;;;;;7.19;89.14;98328.03;5011104;28;19916;-85
2022/01/10 02:41:32;;;;;;;;;;;;;;;7.21;89.33;98329.72;5021841;28;19944;-85
2022/01/10 02:43:58;;;;;;;;;;;;;;;7.19;89.09;98326.28;5027188;28;19909;-86
2022/01/10 02:46:24;;;;;;;;;;;;;;;7.32;88.13;98319.84;5024877;28;19909;-86
2022/01/10 02:48:50;;;;;;;;;;;;;;;7.47;87.77;98334.34;5021770;28;19916;-85
2022/01/10 02:51:15;;;;;;;;;;;;;;;7.42;87.12;98330.13;5006433;28;20386;-85
2022/01/10 02:53:41;;;;;;;;;;;;;;;7.40;88.03;98327.53;5007712;28;19953;-85
2022/01/10 02:56:06;;;;;;;;;;;;;;;7.44;87.75;98331.78;5026270;28;19909;-85
2022/01/10 02:58:32;;;;;;;;;;;;;;;7.45;87.80;98337.94;5026100;28;19959;-85
2022/01/10 03:00:57;;;;;;;;;;;;;;;7.43;87.37;98329.22;5022032;28;19940;-85
2022/01/10 03:03:25;;;;;;;;;;;;;;;7.37;87.22;98339.84;5006437;28;19913;-84
2022/01/10 03:05:51;;;;;;;;;;;;;;;7.35;87.68;98338.16;5007013;28;19971;-87
2022/01/10 03:08:16;;;;;;;;;;;;;;;7.44;87.32;98337.03;5011580;28;20685;-85
2022/01/10 03:10:41;;;;;;;;;;;;;;;7.46;87.07;98335.25;5025651;28;20010;-85
2022/01/10 03:13:07;;;;;;;;;;;;;;;7.45;86.93;98346.66;5026358;28;20086;-85
2022/01/10 03:15:32;;;;;;;;;;;;;;;7.39;87.59;98352.03;5024698;28;19919;-86
2022/01/10 03:17:57;;;;;;;;;;;;;;;7.08;89.08;98347.50;5026005;28;19945;-85
2022/01/10 03:20:23;;;;;;;;;;;;;;;7.06;90.12;98336.19;5009218;28;19921;-85
2022/01/10 03:22:49;;;;;;;;;;;;;;;7.17;89.55;98336.81;5021769;28;19913;-86
2022/01/10 03:25:15;;;;;;;;;;;;;;;7.25;88.82;98338.41;5006452;28;19910;-85
2022/01/10 03:27:40;;;;;;;;;;;;;;;7.42;88.27;98330.13;5006821;28;19915;-85
2022/01/10 03:30:06;;;;;;;;;;;;;;;7.29;88.60;98354.03;5006156;28;20273;-86
2022/01/10 03:32:31;;;;;;;;;;;;;;;7.17;89.02;98351.69;5019338;28;19996;-86
2022/01/10 03:34:57;;;;;;;;;;;;;;;7.20;89.68;98356.84;5026215;28;20075;-86
2022/01/10 03:37:23;;;;;;;;;;;;;;;7.29;88.97;98348.78;5026127;28;19913;-87
2022/01/10 03:39:49;;;;;;;;;;;;;;;7.45;88.40;98364.16;5008382;28;20744;-86
2022/01/10 03:42:14;;;;;;;;;;;;;;;7.44;88.24;98365.06;5005921;28;19913;-86
2022/01/10 03:44:39;;;;;;;;;;;;;;;7.52;87.49;98369.22;5005950;28;19913;-86
2022/01/10 03:47:05;;;;;;;;;;;;;;;7.57;87.27;98366.50;5022489;28;20054;-85
2022/01/10 03:49:31;;;;;;;;;;;;;;;7.58;87.34;98359.47;5020958;28;19948;-86
2022/01/10 03:51:56;;;;;;;;;;;;;;;7.62;87.01;98366.38;5006390;28;19962;-88
2022/01/10 03:54:21;;;;;;;;;;;;;;;7.61;87.44;98365.50;5004215;28;19920;-86
2022/01/10 03:56:48;;;;;;;;;;;;;;;7.78;86.64;98370.34;5005957;28;20297;-86
2022/01/10 03:59:13;;;;;;;;;;;;;;;7.82;86.13;98366.75;5018766;28;19956;-85
2022/01/10 04:01:39;;;;;;;;;;;;;;;7.73;86.51;98380.09;5022483;28;20386;-88
2022/01/10 04:04:06;;;;;;;;;;;;;;;7.95;85.94;98369.06;5021259;28;19917;-87
2022/01/10 04:06:31;;;;;;;;;;;;;;;7.88;86.13;98378.88;5026034;28;19920;-88
2022/01/10 04:08:56;;;;;;;;;;;;;;;7.86;86.23;98380.66;5025330;28;19917;-89
2022/01/10 04:11:22;;;;;;;;;;;;;;;7.67;86.91;98380.25;5019872;28;19967;-86
2022/01/10 04:13:47;;;;;;;;;;;;;;;7.83;86.19;98375.47;5005914;28;19913;-85
2022/01/10 04:16:12;;;;;;;;;;;;;;;8.04;85.41;98393.31;5005997;28;19914;-84
2022/01/10 04:18:38;;;;;;;;;;;;;;;7.97;85.45;98383.00;5025468;28;19909;-86
2022/01/10 04:21:03;;;;;;;;;;;;;;;8.09;85.18;98381.84;5007045;28;20291;-88
2022/01/10 04:23:28;;;;;;;;;;;;;;;8.19;84.32;98388.59;5006200;28;19948;-90
2022/01/10 04:25:54;;;;;;;;;;;;;;;8.24;84.25;98389.31;5011640;28;19936;-86
2022/01/10 04:28:19;;;;;;;;;;;;;;;8.24;84.00;98394.56;5026373;28;19913;-89
2022/01/10 04:30:44;;;;;;;;;;;;;;;8.32;83.56;98395.22;5024985;28;19916;-84
2022/01/10 04:33:16;;;;;;;;;;;;;;;8.31;84.09;98395.25;5024278;28;19923;-85
2022/01/10 04:35:41;;;;;;;;;;;;;;;8.24;83.24;98397.19;5022287;28;20320;-85
2022/01/10 04:38:07;;;;;;;;;;;;;;;8.20;84.18;98400.81;5025775;28;19920;-83
2022/01/10 04:40:32;;;;;;;;;;;;;;;8.21;83.84;98402.53;5023037;28;20773;-84
2022/01/10 04:42:57;;;;;;;;;;;;;;;8.12;83.89;98397.53;5025613;28;20568;-84
2022/01/10 04:45:23;;;;;;;;;;;;;;;7.91;84.86;98401.53;5024789;28;20502;-84
2022/01/10 04:47:48;;;;;;;;;;;;;;;7.84;86.09;98400.84;5028424;28;20458;-84
2022/01/10 04:52:49;;;;;;;;;;;;;;;8.10;85.19;98402.81;5028453;28;19917;-84
2022/01/10 04:55:14;;;;;;;;;;;;;;;8.15;84.83;98400.91;5027371;28;19924;-84
2022/01/10 04:57:40;;;;;;;;;;;;;;;8.22;84.94;98401.66;5020982;28;20008;-84
2022/01/10 05:00:07;;;;;;;;;;;;;;;7.82;86.42;98400.03;5009573;28;19917;-83
2022/01/10 05:02:33;;;;;;;;;;;;;;;8.11;85.60;98403.66;5025986;28;20008;-84
2022/01/10 05:04:58;;;;;;;;;;;;;;;8.25;84.72;98406.81;5028662;28;20015;-83
2022/01/10 05:07:24;;;;;;;;;;;;;;;8.25;84.54;98407.66;5020869;28;19924;-83
2022/01/10 05:09:49;;;;;;;;;;;;;;;8.24;84.09;98405.94;5011759;28;19917;-83
2022/01/10 05:12:14;;;;;;;;;;;;;;;8.32;84.26;98408.34;5027576;28;20356;-83
2022/01/10 05:14:40;;;;;;;;;;;;;;;8.52;84.34;98404.38;5028681;28;20382;-83
2022/01/10 05:17:06;;;;;;;;;;;;;;;8.48;83.50;98414.13;5019608;28;19944;-83
2022/01/10 05:19:31;;;;;;;;;;;;;;;8.53;83.79;98414.00;5006296;28;19914;-83
2022/01/10 05:21:57;;;;;;;;;;;;;;;8.51;83.70;98418.41;5041743;28;19921;-83
2022/01/10 05:24:22;;;;;;;;;;;;;;;8.50;82.91;98412.31;5007041;28;19920;-83
2022/01/10 05:26:48;;;;;;;;;;;;;;;8.53;82.60;98411.38;5012122;28;19913;-83
2022/01/10 05:29:13;;;;;;;;;;;;;;;8.49;83.47;98422.88;5026228;28;20335;-82
2022/01/10 05:31:39;;;;;;;;;;;;;;;8.54;83.05;98423.59;5009804;28;20000;-84
2022/01/10 05:34:04;;;;;;;;;;;;;;;8.52;83.02;98433.28;5018620;28;20292;-83
2022/01/10 05:36:29;;;;;;;;;;;;;;;8.53;82.68;98429.78;5018792;28;19921;-84
2022/01/10 05:38:56;;;;;;;;;;;;;;;8.53;82.85;98432.41;5006953;28;20004;-83
2022/01/10 05:41:22;;;;;;;;;;;;;;;8.58;82.95;98436.59;5009904;28;19925;-84
2022/01/10 05:43:48;;;;;;;;;;;;;;;8.35;83.98;98431.94;5026476;28;20587;-83
2022/01/10 05:46:16;;;;;;;;;;;;;;;8.42;83.97;98437.91;5008853;28;19983;-83
2022/01/10 05:48:46;;;;;;;;;;;;;;;8.42;83.43;98436.13;5008078;28;19913;-85
2022/01/10 05:51:12;;;;;;;;;;;;;;;8.34;84.08;98438.09;5007810;28;19913;-83
2022/01/10 05:53:37;;;;;;;;;;;;;;;8.33;84.98;98443.41;5026417;28;20012;-83
2022/01/10 05:56:03;;;;;;;;;;;;;;;8.32;84.49;98445.16;5024983;28;19952;-84
2022/01/10 05:58:28;;;;;;;;;;;;;;;8.30;84.89;98449.59;5025147;28;19963;-84
2022/01/10 06:00:54;;;;;;;;;;;;;;;8.31;85.58;98447.81;5026224;28;20213;-84
2022/01/10 06:03:19;;;;;;;;;;;;;;;8.40;84.98;98452.84;5014886;28;20461;-84
2022/01/10 06:05:44;;;;;;;;;;;;;;;8.28;85.84;98451.41;5027929;28;19964;-84
2022/01/10 06:08:10;;;;;;;;;;;;;;;8.35;85.58;98452.94;5015460;28;19917;-84
2022/01/10 06:10:36;;;;;;;;;;;;;;;8.54;84.27;98453.38;5008100;28;19913;-84
2022/01/10 06:13:01;;;;;;;;;;;;;;;8.52;83.96;98459.56;5022907;28;19916;-86
2022/01/10 06:15:26;;;;;;;;;;;;;;;8.53;84.91;98454.28;5021711;28;19924;-86
2022/01/10 06:17:52;;;;;;;;;;;;;;;8.54;85.05;98458.66;5007298;28;19913;-85
2022/01/10 06:20:18;;;;;;;;;;;;;;;8.51;85.65;98456.09;5005317;28;20004;-86
2022/01/10 06:22:44;;;;;;;;;;;;;;;8.71;86.72;98463.44;5007366;28;19917;-85
2022/01/10 06:25:11;;;;;;;;;;;;;;;8.81;85.71;98471.09;5007801;28;19975;-84
2022/01/10 06:27:37;;;;;;;;;;;;;;;8.99;84.21;98465.31;5007045;28;19916;-85
2022/01/10 06:30:03;;;;;;;;;;;;;;;9.02;85.50;98467.88;5038753;28;19913;-85
2022/01/10 06:32:28;;;;;;;;;;;;;;;9.08;84.64;98469.44;5006983;28;19988;-85
2022/01/10 06:34:54;;;;;;;;;;;;;;;9.05;85.14;98467.78;5007582;28;19910;-84
2022/01/10 06:37:19;;;;;;;;;;;;;;;9.25;84.77;98472.47;5007061;28;19913;-84
2022/01/10 06:39:45;;;;;;;;;;;;;;;9.41;84.53;98482.53;5006932;28;19913;-85
2022/01/10 06:42:10;;;;;;;;;;;;;;;9.43;84.08;98480.72;5007441;28;20304;-85
2022/01/10 06:44:35;;;;;;;;;;;;;;;9.47;83.36;98485.84;5038736;28;19991;-85
2022/01/10 06:47:01;;;;;;;;;;;;;;;9.54;82.49;98480.41;5007131;28;19913;-86
2022/01/10 06:49:26;;;;;;;;;;;;;;;9.57;83.09;98488.19;5007238;28;19913;-86
2022/01/10 06:51:51;;;;;;;;;;;;;;;9.62;82.64;98481.91;5022804;28;20044;-85
2022/01/10 06:54:17;;;;;;;;;;;;;;;9.67;82.25;98484.41;5021643;28;20284;-85
2022/01/10 06:56:42;;;;;;;;;;;;;;;9.75;82.05;98490.28;5009754;28;20461;-82
2022/01/10 06:59:08;;;;;;;;;;;;;;;9.57;81.53;98491.69;5006594;28;19913;-83
2022/01/10 07:01:34;;;;;;;;;;;;;;;9.48;81.10;98484.94;5006965;28;19913;-84
2022/01/10 07:03:59;;;;;;;;;;;;;;;9.41;80.88;98488.66;5006685;28;19913;-84
2022/01/10 07:06:25;;;;;;;;;;;;;;;9.38;81.00;98490.53;5007021;28;20323;-84
2022/01/10 07:08:50;;;;;;;;;;;;;;;9.35;81.06;98482.72;5006984;28;19914;-83
2022/01/10 07:11:16;;;;;;;;;;;;;;;9.33;81.38;98485.41;5006493;28;20371;-82
2022/01/10 07:13:42;;;;;;;;;;;;;;;9.31;81.87;98480.19;5006497;28;20000;-83
2022/01/10 07:16:08;;;;;;;;;;;;;;;9.29;81.86;98486.38;5006038;28;19971;-83
2022/01/10 07:18:33;;;;;;;;;;;;;;;9.39;81.56;98486.97;5006092;28;19914;-83
2022/01/10 07:21:00;;;;;;;;;;;;;;;9.40;81.88;98496.59;5006496;28;20634;-83
2022/01/10 07:23:25;;;;;;;;;;;;;;;9.45;81.69;98500.84;5007060;28;19917;-83
2022/01/10 07:25:51;;;;;;;;;;;;;;;9.37;82.11;98494.91;5005649;28;19919;-83
2022/01/10 07:28:16;;;;;;;;;;;;;;;9.24;82.43;98485.66;5006198;28;20335;-83
2022/01/10 07:30:41;;;;;;;;;;;;;;;9.26;82.69;98484.69;5006338;28;19910;-83
2022/01/10 07:33:07;;;;;;;;;;;;;;;9.40;82.45;98488.72;5006073;28;20439;-83
2022/01/10 07:35:32;;;;;;;;;;;;;;;9.39;82.24;98487.84;5006728;28;20352;-83
2022/01/10 07:37:58;;;;;;;;;;;;;;;9.27;83.00;98493.47;5004987;28;19905;-83
2022/01/10 07:40:24;;;;;;;;;;;;;;;9.32;82.73;98494.19;5005912;28;19913;-83
2022/01/10 07:42:49;;;;;;;;;;;;;;;9.35;82.16;98495.88;5006681;28;19913;-83
2022/01/10 07:45:15;;;;;;;;;;;;;;;9.41;82.69;98500.97;5006412;28;20414;-83
2022/01/10 07:47:40;;;;;;;;;;;;;;;9.49;81.92;98512.97;5005148;28;20037;-83
2022/01/10 07:50:06;;;;;;;;;;;;;;;9.48;82.02;98508.63;5007013;28;19918;-83
2022/01/10 07:52:31;;;;;;;;;;;;;;;9.52;81.61;98511.19;5006324;28;19917;-84
2022/01/10 07:55:00;;;;;;;;;;;;;;;9.55;81.75;98511.09;5006041;28;20411;-83
2022/01/10 07:57:25;;;;;;;;;;;;;;;9.43;82.55;98514.94;5006153;28;20047;-83
2022/01/10 07:59:51;;;;;;;;;;;;;;;9.49;82.30;98518.25;5006166;28;20370;-83
2022/01/10 08:02:16;;;;;;;;;;;;;;;9.45;82.42;98515.75;5021071;28;19924;-82
2022/01/10 08:04:43;;;;;;;;;;;;;;;9.38;83.13;98520.34;5025225;28;19986;-81
2022/01/10 08:07:08;;;;;;;;;;;;;;;9.45;82.86;98516.63;5024629;28;20003;-81
2022/01/10 08:09:33;;;;;;;;;;;;;;;9.38;82.67;98514.22;5024003;28;19980;-81
2022/01/10 08:12:01;;;;;;;;;;;;;;;9.29;83.69;98515.34;5025405;28;19909;-82
2022/01/10 08:14:27;;;;;;;;;;;;;;;9.39;83.36;98523.81;5024309;28;20023;-82
2022/01/10 08:16:53;;;;;;;;;;;;;;;9.44;83.17;98521.94;5025060;28;20004;-81
2022/01/10 08:19:18;;;;;;;;;;;;;;;9.45;82.90;98516.63;5008008;28;19962;-81
2022/01/10 08:21:43;;;;;;;;;;;;;;;9.50;82.98;98521.75;5008827;28;20391;-81
2022/01/10 08:24:09;;;;;;;;;;;;;;;9.57;82.26;98528.53;5008438;28;20453;-81
2022/01/10 08:26:34;;;;;;;;;;;;;;;9.55;82.91;98524.25;5008214;28;19917;-82
2022/01/10 08:28:59;;;;;;;;;;;;;;;9.50;82.42;98519.97;5008655;28;20291;-83
2022/01/10 08:31:24;;;;;;;;;;;;;;;9.42;82.68;98519.34;5007828;28;19959;-82
2022/01/10 08:33:50;;;;;;;;;;;;;;;9.40;83.00;98523.78;5008924;28;19913;-82
2022/01/10 08:36:16;;;;;;;;;;;;;;;9.47;82.64;98524.47;5008967;28;19983;-83
2022/01/10 08:38:42;;;;;;;;;;;;;;;9.53;82.66;98526.03;5008164;28;19913;-82
2022/01/10 08:41:08;;;;;;;;;;;;;;;9.46;82.64;98520.97;5006393;28;20387;-82
2022/01/10 08:43:33;;;;;;;;;;;;;;;9.55;82.92;98516.34;5008667;28;19953;-83
2022/01/10 08:45:58;;;;;;;;;;;;;;;9.51;82.79;98520.81;5008782;28;19963;-82
2022/01/10 08:48:24;;;;;;;;;;;;;;;9.48;83.53;98515.66;5008533;28;19917;-83
2022/01/10 08:50:49;;;;;;;;;;;;;;;9.63;82.27;98522.25;5009243;28;19913;-82
2022/01/10 08:53:15;;;;;;;;;;;;;;;9.29;83.92;98516.19;5008944;28;19914;-83
2022/01/10 08:55:40;;;;;;;;;;;;;;;9.33;84.31;98509.09;5008666;28;20360;-82
2022/01/10 08:58:05;;;;;;;;;;;;;;;9.38;84.43;98511.59;5024689;28;20360;-82
2022/01/10 09:00:31;;;;;;;;;;;;;;;9.41;83.99;98507.09;5028341;28;19916;-83
2022/01/10 09:02:57;;;;;;;;;;;;;;;9.28;84.51;98503.06;5027830;28;19917;-83
2022/01/10 09:05:22;;;;;;;;;;;;;;;9.34;84.11;98496.78;5028667;28;20441;-82
2022/01/10 09:07:48;;;;;;;;;;;;;;;9.37;84.82;98508.06;5028134;28;20004;-82
2022/01/10 09:10:13;;;;;;;;;;;;;;;9.47;83.93;98506.91;5027876;28;20570;-82
2022/01/10 09:12:39;;;;;;;;;;;;;;;9.38;84.01;98501.06;5028610;28;19923;-82
2022/01/10 09:15:08;;;;;;;;;;;;;;;9.37;84.84;98499.31;5028218;28;19920;-82
2022/01/10 09:17:33;;;;;;;;;;;;;;;9.29;85.17;98500.41;5029106;28;19919;-82
2022/01/10 09:19:59;;;;;;;;;;;;;;;9.04;86.57;98497.59;5028093;28;20303;-82
2022/01/10 09:22:24;;;;;;;;;;;;;;;8.85;88.04;98496.38;5027530;28;19959;-82
2022/01/10 09:24:50;;;;;;;;;;;;;;;8.67;89.61;98493.34;5028625;28;20482;-82
2022/01/10 09:27:15;;;;;;;;;;;;;;;8.70;90.24;98497.66;5027653;28;19913;-82
2022/01/10 09:29:42;;;;;;;;;;;;;;;8.70;90.54;98497.66;5028257;28;19917;-82
2022/01/10 09:32:07;;;;;;;;;;;;;;;8.87;90.52;98499.84;5027219;28;19909;-82
2022/01/10 09:34:33;;;;;;;;;;;;;;;8.88;90.33;98497.19;5028012;28;20394;-82
2022/01/10 09:36:58;;;;;;;;;;;;;;;8.82;90.46;98496.47;5028039;28;19920;-82
2022/01/10 09:39:24;;;;;;;;;;;;;;;8.77;90.94;98500.09;5028414;28;19917;-82
2022/01/10 09:41:51;;;;;;;;;;;;;;;8.78;91.42;98498.31;5028018;28;19913;-84
2022/01/10 09:44:17;;;;;;;;;;;;;;;8.76;91.90;98497.50;5028190;28;19971;-82
2022/01/10 09:46:42;;;;;;;;;;;;;;;8.60;92.99;98499.66;5025988;28;20363;-82
2022/01/10 09:49:08;;;;;;;;;;;;;;;8.71;92.81;98496.75;5027433;28;19913;-83
2022/01/10 09:51:33;;;;;;;;;;;;;;;8.55;93.41;98497.16;5027986;28;20710;-83
2022/01/10 09:54:00;;;;;;;;;;;;;;;8.48;94.24;98492.97;5028032;28;19913;-82
2022/01/10 09:56:26;;;;;;;;;;;;;;;8.63;94.27;98489.06;5028168;28;19913;-82
2022/01/10 09:58:53;;;;;;;;;;;;;;;8.78;93.82;98487.81;5028016;28;20303;-83
2022/01/10 10:01:19;;;;;;;;;;;;;;;8.80;92.45;98488.59;5027595;28;19913;-83
2022/01/10 10:03:45;;;;;;;;;;;;;;;8.72;93.97;98483.56;5027509;28;19922;-82
2022/01/10 10:06:10;;;;;;;;;;;;;;;8.59;94.31;98485.66;5027012;28;20660;-82
2022/01/10 10:08:37;;;;;;;;;;;;;;;8.54;95.32;98482.31;5027677;28;19917;-83
2022/01/10 10:11:03;;;;;;;;;;;;;;;8.59;95.99;98480.41;5026817;28;19917;-83
2022/01/10 10:13:28;;;;;;;;;;;;;;;8.48;95.76;98482.47;5026410;28;19913;-83
2022/01/10 10:15:55;;;;;;;;;;;;;;;8.53;95.95;98484.97;5026455;28;19913;-82
2022/01/10 10:18:21;;;;;;;;;;;;;;;8.50;95.79;98482.41;5026724;28;20667;-82
2022/01/10 10:20:46;;;;;;;;;;;;;;;8.54;95.31;98478.78;5027026;28;19968;-82
2022/01/10 10:23:15;;;;;;;;;;;;;;;8.62;95.63;98476.84;5025258;28;19917;-82
2022/01/10 10:25:51;;;;;;;;;;;;;;;8.51;96.03;98481.50;5027219;28;20674;-82
2022/01/10 10:28:17;;;;;;;;;;;;;;;8.66;95.28;98480.25;5024935;28;19917;-83
2022/01/10 10:30:42;;;;;;;;;;;;;;;8.85;94.27;98481.47;5025973;28;19913;-83
2022/01/10 10:33:12;;;;;;;;;;;;;;;8.85;94.08;98481.47;5025869;28;19977;-83
2022/01/10 10:35:38;;;;;;;;;;;;;;;8.83;94.42;98480.63;5026035;28;19963;-82
2022/01/10 10:38:03;;;;;;;;;;;;;;;8.69;95.59;98472.28;5026740;28;19952;-83
2022/01/10 10:40:29;;;;;;;;;;;;;;;8.91;94.48;98481.31;5025734;28;19944;-82
2022/01/10 10:42:57;;;;;;;;;;;;;;;8.91;94.37;98470.78;5025851;28;19913;-83
2022/01/10 10:45:24;;;;;;;;;;;;;;;9.08;93.30;98470.31;5027368;28;19913;-84
2022/01/10 10:47:50;;;;;;;;;;;;;;;9.05;93.30;98470.41;5026833;28;19920;-83
2022/01/10 10:50:17;;;;;;;;;;;;;;;8.80;94.48;98471.97;5008293;28;19928;-84
2022/01/10 10:52:43;;;;;;;;;;;;;;;8.93;95.07;98465.50;5006777;28;20629;-84
2022/01/10 10:55:12;;;;;;;;;;;;;;;8.82;94.74;98472.78;5006420;28;20368;-84
2022/01/10 10:57:38;;;;;;;;;;;;;;;8.92;94.64;98479.53;5006512;28;20343;-86
2022/01/10 11:00:15;;;;;;;;;;;;;;;9.10;93.47;98478.16;5005947;28;20015;-83
2022/01/10 11:02:41;;;;;;;;;;;;;;;8.89;93.73;98479.63;5005684;28;19913;-85
2022/01/10 11:05:07;;;;;;;;;;;;;;;8.73;95.96;98482.66;5007117;28;19909;-83
2022/01/10 11:07:34;;;;;;;;;;;;;;;8.82;95.54;98481.56;5007174;28;19920;-84
2022/01/10 11:10:00;;;;;;;;;;;;;;;8.77;96.10;98480.81;5006543;28;19921;-85
2022/01/10 11:12:26;;;;;;;;;;;;;;;8.69;96.77;98483.63;5007010;28;20438;-85
2022/01/10 11:14:54;;;;;;;;;;;;;;;8.83;96.41;98471.91;5007054;28;19913;-84
2022/01/10 11:17:20;;;;;;;;;;;;;;;8.81;96.42;98476.34;5006980;28;19913;-85
2022/01/10 11:20:06;;;;;;;;;;;;;;;8.72;96.81;98480.06;5006984;28;19928;-84
2022/01/10 11:22:31;;;;;;;;;;;;;;;8.56;98.62;98479.63;5006748;28;19914;-85
2022/01/10 11:24:56;;;;;;;;;;;;;;;8.66;98.65;98475.84;5011457;28;19968;-84
2022/01/10 11:27:39;;;;;;;;;;;;;;;8.88;97.50;98470.00;5006803;28;20284;-84
2022/01/10 11:30:23;;;;;;;;;;;;;;;8.66;97.68;98470.56;5006342;28;20459;-85
2022/01/10 11:32:56;;;;;;;;;;;;;;;8.54;98.36;98473.53;5006273;28;19960;-84
2022/01/10 11:35:25;;;;;;;;;;;;;;;8.50;99.76;98477.16;5006687;28;19909;-86
2022/01/10 11:37:50;;;;;;;;;;;;;;;8.50;99.16;98471.91;5005289;28;20439;-85
2022/01/10 11:40:17;;;;;;;;;;;;;;;8.54;99.38;98474.41;5006814;28;20039;-85
2022/01/10 11:42:44;;;;;;;;;;;;;;;8.67;98.77;98480.19;5006615;28;19921;-85
2022/01/10 11:45:10;;;;;;;;;;;;;;;8.56;98.81;98475.22;5005387;28;20027;-85
2022/01/10 11:47:55;;;;;;;;;;;;;;;8.59;99.01;98482.19;5006272;28;19909;-86
2022/01/10 11:50:28;;;;;;;;;;;;;;;8.68;98.42;98479.31;5006674;28;19988;-86
2022/01/10 11:52:54;;;;;;;;;;;;;;;8.59;98.17;98484.81;5006321;28;19966;-84
2022/01/10 11:55:29;;;;;;;;;;;;;;;8.54;98.99;98489.31;5009429;28;20016;-85
2022/01/10 11:58:01;;;;;;;;;;;;;;;8.52;99.14;98491.13;5010625;28;19916;-86
2022/01/10 12:00:34;;;;;;;;;;;;;;;8.54;99.10;98491.94;5010135;28;19924;-85
2022/01/10 12:02:59;;;;;;;;;;;;;;;8.66;98.29;98491.59;5009078;28;20020;-85
2022/01/10 12:05:24;;;;;;;;;;;;;;;8.76;98.34;98498.34;5010541;28;20368;-83
2022/01/10 12:07:51;;;;;;;;;;;;;;;8.70;97.51;98493.25;5027299;28;20344;-83
2022/01/10 12:10:17;;;;;;;;;;;;;;;8.84;97.99;98508.66;5029556;28;19971;-83
2022/01/10 12:12:43;;;;;;;;;;;;;;;8.81;96.79;98505.28;5029631;28;19912;-84
2022/01/10 12:15:08;;;;;;;;;;;;;;;8.71;97.21;98499.38;5029858;28;20367;-83
2022/01/10 12:17:36;;;;;;;;;;;;;;;8.77;97.30;98504.47;5027581;28;19928;-85
2022/01/10 12:20:02;;;;;;;;;;;;;;;8.81;96.62;98500.00;5029598;28;20339;-84
2022/01/10 12:22:28;;;;;;;;;;;;;;;8.76;96.77;98493.09;5029113;28;19919;-84
2022/01/10 12:24:53;;;;;;;;;;;;;;;8.83;97.01;98496.41;5029825;28;19909;-84
2022/01/10 12:27:18;;;;;;;;;;;;;;;8.86;96.19;98506.84;5026975;28;20071;-84
2022/01/10 12:29:44;;;;;;;;;;;;;;;8.78;97.34;98506.22;5029622;28;19975;-84
2022/01/10 12:32:11;;;;;;;;;;;;;;;8.67;98.27;98506.50;5028698;28;20368;-84
2022/01/10 12:34:38;;;;;;;;;;;;;;;8.73;98.34;98508.09;5028337;28;19921;-85
2022/01/10 12:37:04;;;;;;;;;;;;;;;8.73;98.05;98505.47;5029792;28;19921;-84
2022/01/10 12:39:30;;;;;;;;;;;;;;;8.81;98.06;98506.13;5029710;28;19939;-85
2022/01/10 12:41:57;;;;;;;;;;;;;;;8.78;98.38;98507.06;5029534;28;20383;-86
2022/01/10 12:44:22;;;;;;;;;;;;;;;8.73;98.42;98505.47;5029474;28;19913;-87
2022/01/10 12:46:49;;;;;;;;;;;;;;;8.62;99.71;98516.28;5028864;28;20320;-87
2022/01/10 12:49:14;;;;;;;;;;;;;;;8.56;100.00;98519.06;5019527;28;19917;-85
2022/01/10 12:51:40;;;;;;;;;;;;;;;8.52;100.00;98514.78;5009793;28;19911;-86
2022/01/10 12:54:10;;;;;;;;;;;;;;;8.60;100.00;98513.69;5008897;28;19917;-86
2022/01/10 12:56:36;;;;;;;;;;;;;;;8.49;100.00;98515.69;5009471;28;19913;-87
2022/01/10 12:59:01;;;;;;;;;;;;;;;8.52;100.00;98535.81;5008526;28;19917;-86
2022/01/10 13:01:27;;;;;;;;;;;;;;;8.45;100.00;98531.59;5008739;28;19916;-87
2022/01/10 13:03:54;;;;;;;;;;;;;;;8.54;100.00;98541.88;5008821;28;20331;-86
2022/01/10 13:06:21;;;;;;;;;;;;;;;8.49;100.00;98547.25;5007484;28;20791;-86